createdAt,value
2023-04-23T00:03:45.831Z,3.80
2023-04-23T00:08:41.953Z,3.72
2023-04-23T00:13:34.388Z,4.07
2023-04-23T00:18:26.681Z,4.05
2023-04-23T00:23:18.653Z,3.77
2023-04-23T00:28:10.655Z,3.90
2023-04-23T00:33:02.658Z,3.60
2023-04-23T00:37:56.025Z,3.73
2023-04-23T00:42:54.005Z,3.88
2023-04-23T00:47:47.193Z,4.22
2023-04-23T00:52:40.893Z,3.50
2023-04-23T00:57:33.432Z,3.95
2023-04-23T01:02:28.281Z,3.60
2023-04-23T01:07:20.401Z,3.50
2023-04-23T01:12:13.419Z,3.80
2023-04-23T01:22:01.886Z,3.97
2023-04-23T01:26:54.123Z,3.60
2023-04-23T01:31:47.545Z,3.70
2023-04-23T01:36:39.641Z,3.80
2023-04-23T01:41:31.906Z,3.83
2023-04-23T01:46:24.250Z,3.70
2023-04-23T01:51:16.457Z,3.83
2023-04-23T01:56:09.916Z,3.77
2023-04-23T02:01:01.900Z,3.90
2023-04-23T02:05:55.169Z,3.47
2023-04-23T02:10:47.411Z,3.67
2023-04-23T02:15:40.686Z,3.73
2023-04-23T02:20:32.867Z,3.42
2023-04-23T02:25:25.893Z,3.80
2023-04-23T02:30:17.833Z,4.20
2023-04-23T02:35:12.847Z,3.80
2023-04-23T02:40:06.858Z,3.40
2023-04-23T02:44:58.850Z,3.45
2023-04-23T02:49:50.799Z,3.50
2023-04-23T02:54:43.335Z,3.78
2023-04-23T02:59:35.780Z,3.50
2023-04-23T03:04:27.947Z,3.63
2023-04-23T03:09:20.100Z,3.28
2023-04-23T03:14:13.553Z,3.75
2023-04-23T03:19:05.965Z,3.47
2023-04-23T03:23:57.983Z,3.37
2023-04-23T03:28:50.050Z,3.47
2023-04-23T03:33:42.067Z,3.83
2023-04-23T03:38:34.080Z,3.50
2023-04-23T03:43:28.335Z,3.58
2023-04-23T03:48:41.635Z,3.30
2023-04-23T03:53:45.039Z,3.40
2023-04-23T03:58:56.895Z,3.40
2023-04-23T04:03:49.085Z,3.20
2023-04-23T04:08:41.322Z,3.03
2023-04-23T04:13:33.136Z,3.70
2023-04-23T04:18:25.037Z,3.50
2023-04-23T04:23:17.032Z,3.42
2023-04-23T04:28:12.056Z,3.22
2023-04-23T04:33:04.223Z,3.38
2023-04-23T04:37:57.261Z,3.03
2023-04-23T04:42:49.317Z,3.72
2023-04-23T04:47:42.114Z,3.37
2023-04-23T04:57:28.754Z,3.00
2023-04-23T05:02:22.118Z,3.47
2023-04-23T05:07:14.250Z,3.15
2023-04-23T05:12:07.727Z,3.33
2023-04-23T05:16:59.893Z,2.83
2023-04-23T05:21:51.889Z,3.40
2023-04-23T05:26:43.894Z,3.50
2023-04-23T05:31:35.780Z,3.05
2023-04-23T05:36:27.790Z,3.10
2023-04-23T05:41:19.717Z,3.23
2023-04-23T05:46:11.652Z,3.67
2023-04-23T05:51:03.638Z,3.25
2023-04-23T05:55:56.126Z,3.63
2023-04-23T06:00:48.530Z,3.22
2023-04-23T06:05:43.408Z,3.15
2023-04-23T06:10:35.305Z,3.20
2023-04-23T06:15:27.412Z,3.45
2023-04-23T06:20:20.524Z,3.07
2023-04-23T06:25:12.632Z,3.08
2023-04-23T06:30:05.039Z,3.27
2023-04-23T06:35:01.630Z,3.65
2023-04-23T06:39:54.341Z,2.95
2023-04-23T06:44:47.165Z,3.13
2023-04-23T06:49:40.231Z,3.20
2023-04-23T06:54:33.389Z,3.38
2023-04-23T06:59:25.545Z,2.95
2023-04-23T07:04:23.430Z,2.95
2023-04-23T07:09:15.608Z,2.95
2023-04-23T07:14:07.696Z,3.07
2023-04-23T07:19:03.166Z,2.97
2023-04-23T07:23:58.079Z,3.17
2023-04-23T07:28:52.693Z,2.90
2023-04-23T07:33:45.971Z,3.00
2023-04-23T07:38:38.222Z,2.90
2023-04-23T07:43:30.331Z,2.80
2023-04-23T07:48:23.304Z,3.30
2023-04-23T07:58:08.319Z,2.88
2023-04-23T08:03:00.743Z,3.17
2023-04-23T08:07:53.714Z,2.83
2023-04-23T08:17:37.877Z,3.20
2023-04-23T08:22:29.893Z,2.60
2023-04-23T08:27:21.825Z,3.00
2023-04-23T08:32:13.882Z,2.92
2023-04-23T08:37:08.546Z,2.90
2023-04-23T08:42:13.845Z,2.92
2023-04-23T08:47:06.607Z,2.78
2023-04-23T08:52:05.070Z,2.53
2023-04-23T08:56:58.663Z,3.17
2023-04-23T09:01:52.211Z,3.30
2023-04-23T09:06:44.509Z,2.60
2023-04-23T09:11:38.325Z,3.00
2023-04-23T09:16:30.517Z,2.70
2023-04-23T09:21:22.527Z,2.90
2023-04-23T09:26:21.299Z,2.80
2023-04-23T09:31:13.494Z,3.08
2023-04-23T09:36:11.102Z,2.97
2023-04-23T09:41:21.777Z,3.17
2023-04-23T09:46:13.650Z,2.80
2023-04-23T09:51:05.970Z,2.92
2023-04-23T09:55:58.002Z,2.80
2023-04-23T10:00:50.024Z,2.60
2023-04-23T10:10:47.085Z,2.90
2023-04-23T10:15:49.311Z,2.53
2023-04-23T10:20:42.243Z,2.80
2023-04-23T10:30:27.408Z,3.10
2023-04-23T10:35:19.546Z,2.80
2023-04-23T10:40:14.548Z,2.87
2023-04-23T10:45:24.739Z,2.97
2023-04-23T10:50:22.805Z,3.00
2023-04-23T10:55:18.679Z,2.63
2023-04-23T11:00:11.390Z,2.50
2023-04-23T11:05:09.790Z,2.92
2023-04-23T11:10:12.445Z,2.38
2023-04-23T11:15:15.180Z,3.03
2023-04-23T11:20:16.438Z,2.70
2023-04-23T11:25:16.585Z,2.42
2023-04-23T11:30:14.411Z,2.80
2023-04-23T11:35:07.861Z,2.70
2023-04-23T11:40:08.300Z,2.60
2023-04-23T11:45:00.235Z,2.60
2023-04-23T11:49:52.221Z,2.60
2023-04-23T11:54:44.208Z,3.00
2023-04-23T11:59:36.176Z,3.10
2023-04-23T12:04:29.986Z,2.53
2023-04-23T12:09:24.335Z,2.60
2023-04-23T12:14:16.733Z,2.60
2023-04-23T12:19:21.536Z,2.90
2023-04-23T12:24:14.650Z,2.75
2023-04-23T12:29:08.013Z,2.75
2023-04-23T12:34:04.871Z,2.70
2023-04-23T12:39:24.480Z,2.85
2023-04-23T12:44:16.497Z,2.88
2023-04-23T12:49:08.586Z,2.78
2023-04-23T12:54:00.743Z,2.73
2023-04-23T12:58:53.262Z,2.73
2023-04-23T13:03:45.394Z,3.03
2023-04-23T13:08:37.308Z,2.60
2023-04-23T13:13:29.320Z,3.00
2023-04-23T13:18:22.897Z,2.67
2023-04-23T13:23:16.987Z,3.17
2023-04-23T13:28:08.953Z,3.20
2023-04-23T13:33:00.965Z,2.55
2023-04-23T13:38:08.053Z,2.80
2023-04-23T13:42:59.947Z,2.70
2023-04-23T13:47:51.890Z,2.88
2023-04-23T13:52:43.900Z,3.05
2023-04-23T13:57:35.957Z,2.90
2023-04-23T14:02:28.174Z,2.77
2023-04-23T14:07:20.137Z,2.88
2023-04-23T14:12:12.084Z,2.97
2023-04-23T14:17:05.993Z,2.90
2023-04-23T14:21:57.926Z,2.92
2023-04-23T14:26:50.312Z,2.75
2023-04-23T14:31:42.315Z,2.58
2023-04-23T14:36:34.302Z,2.83
2023-04-23T14:41:26.232Z,2.90
2023-04-23T14:46:18.133Z,2.80
2023-04-23T14:51:10.264Z,2.47
2023-04-23T14:56:04.325Z,2.50
2023-04-23T15:00:56.290Z,2.47
2023-04-23T15:05:48.233Z,2.88
2023-04-23T15:10:40.392Z,2.72
2023-04-23T15:15:43.753Z,2.87
2023-04-23T15:20:41.596Z,2.83
2023-04-23T15:25:34.641Z,2.80
2023-04-23T15:30:26.997Z,2.92
2023-04-23T15:35:19.241Z,3.10
2023-04-23T15:40:11.588Z,2.80
2023-04-23T15:45:04.025Z,2.90
2023-04-23T15:49:56.231Z,2.97
2023-04-23T15:54:49.717Z,2.70
2023-04-23T15:59:41.931Z,2.80
2023-04-23T16:04:34.366Z,2.60
2023-04-23T16:09:26.676Z,2.65
2023-04-23T16:14:18.627Z,2.57
2023-04-23T16:19:12.098Z,2.50
2023-04-23T16:24:04.704Z,2.42
2023-04-23T16:29:11.654Z,2.70
2023-04-23T16:34:09.197Z,2.60
2023-04-23T16:39:01.433Z,2.57
2023-04-23T16:43:53.621Z,2.60
2023-04-23T16:48:45.858Z,2.60
2023-04-23T16:53:38.075Z,2.92
2023-04-23T16:58:30.029Z,3.10
2023-04-23T17:03:22.253Z,2.70
2023-04-23T17:08:14.275Z,2.80
2023-04-23T17:13:06.287Z,2.65
2023-04-23T17:17:58.515Z,2.70
2023-04-23T17:22:50.728Z,2.53
2023-04-23T17:27:43.874Z,2.50
2023-04-23T17:32:35.948Z,2.70
2023-04-23T17:37:27.940Z,3.03
2023-04-23T17:42:19.910Z,3.00
2023-04-23T17:47:14.157Z,2.50
2023-04-23T17:52:07.373Z,2.50
2023-04-23T17:56:59.268Z,2.45
2023-04-23T18:01:51.376Z,2.53
2023-04-23T18:06:44.258Z,2.67
2023-04-23T18:21:22.747Z,2.85
2023-04-23T18:26:14.672Z,2.58
2023-04-23T18:31:06.771Z,2.63
2023-04-23T18:36:04.127Z,2.47
2023-04-23T18:40:56.222Z,2.28
2023-04-23T18:45:48.150Z,2.43
2023-04-23T18:50:43.907Z,2.92
2023-04-23T18:55:35.821Z,2.67
2023-04-23T19:00:27.967Z,2.80
2023-04-23T19:05:21.119Z,2.67
2023-04-23T19:10:13.913Z,2.88
2023-04-23T19:15:06.235Z,2.40
2023-04-23T19:19:58.125Z,2.38
2023-04-23T19:24:50.006Z,2.60
2023-04-23T19:29:42.051Z,2.67
2023-04-23T19:34:34.215Z,2.30
2023-04-23T19:39:26.888Z,2.10
2023-04-23T19:44:18.829Z,2.55
2023-04-23T19:49:10.733Z,2.53
2023-04-23T19:54:02.920Z,2.40
2023-04-23T19:58:54.860Z,2.47
2023-04-23T20:03:51.996Z,2.75
2023-04-23T20:09:03.745Z,2.95
2023-04-23T20:13:55.841Z,2.25
2023-04-23T20:18:48.692Z,2.50
2023-04-23T20:23:42.160Z,2.50
2023-04-23T20:28:35.494Z,2.58
2023-04-23T20:33:27.369Z,2.38
2023-04-23T20:38:19.406Z,2.33
2023-04-23T20:43:11.348Z,2.40
2023-04-23T20:48:03.832Z,2.67
2023-04-23T20:52:56.918Z,2.75
2023-04-23T20:57:49.969Z,2.50
2023-04-23T21:02:42.083Z,2.22
2023-04-23T21:07:36.704Z,2.90
2023-04-23T21:12:28.698Z,2.42
2023-04-23T21:17:20.690Z,2.67
2023-04-23T21:22:12.656Z,2.20
2023-04-23T21:27:04.673Z,2.42
2023-04-23T21:31:56.661Z,2.43
2023-04-23T21:36:49.354Z,2.60
2023-04-23T21:41:41.333Z,2.35
2023-04-23T21:46:33.533Z,2.38
2023-04-23T21:51:26.222Z,2.27
2023-04-23T21:56:18.321Z,2.80
2023-04-23T22:01:10.478Z,2.60
2023-04-23T22:06:02.948Z,2.50
2023-04-23T22:10:56.343Z,2.42
2023-04-23T22:15:51.193Z,2.20
2023-04-23T22:20:48.410Z,2.30
2023-04-23T22:25:40.571Z,2.40
2023-04-23T22:30:32.627Z,2.17
2023-04-23T22:35:24.637Z,2.33
2023-04-23T22:40:16.643Z,2.40
2023-04-23T22:45:08.700Z,2.50
2023-04-23T22:50:00.648Z,2.50
2023-04-23T22:54:55.011Z,2.40
2023-04-23T22:59:47.096Z,2.33
2023-04-23T23:04:41.181Z,2.80
2023-04-23T23:09:34.252Z,2.50
2023-04-23T23:14:27.061Z,2.40
2023-04-23T23:19:20.132Z,2.20
2023-04-23T23:24:12.109Z,2.42
2023-04-23T23:29:04.699Z,2.30
2023-04-23T23:33:56.704Z,2.20
2023-04-23T23:38:48.667Z,2.38
2023-04-23T23:43:40.666Z,2.17
2023-04-23T23:48:34.488Z,2.40
2023-04-23T23:53:26.571Z,2.65
2023-04-23T23:58:18.458Z,2.43
